Time;durP1;ratioP1;P1;durP2;ratioP2;P2;SDS_P1;SDS_P2;PMS_P1;PMS_P2;Temp;Humidity;BMP_temperature;BMP_pressure;BME280_temperature;BME280_humidity;BME280_pressure;Samples;Min_cycle;Max_cycle;Signal;HPM_P1;HPM_P2
2022/06/17 00:00:26;;;;;;;6.57;4.43;;;18.40;58.00;;;;;;5077378;28;20197;-90
2022/06/17 00:02:54;;;;;;;5.38;4.75;;;18.30;57.20;;;;;;5084958;28;20193;-89
2022/06/17 00:05:21;;;;;;;5.65;4.35;;;18.20;58.40;;;;;;5078209;28;20433;-89
2022/06/17 00:07:49;;;;;;;7.57;4.38;;;18.20;60.00;;;;;;5095916;28;20204;-89
2022/06/17 00:10:22;;;;;;;5.43;4.22;;;18.30;59.80;;;;;;5096422;28;20196;-89
2022/06/17 00:13:01;;;;;;;7.47;4.45;;;18.30;59.60;;;;;;5089816;28;20197;-89
2022/06/17 00:15:55;;;;;;;5.60;4.90;;;18.20;61.90;;;;;;5084702;28;20203;-89
2022/06/17 00:18:27;;;;;;;6.00;4.30;;;18.20;59.60;;;;;;5082958;28;20212;-89
2022/06/17 00:20:54;;;;;;;4.47;4.05;;;18.00;58.10;;;;;;5084263;28;20284;-89
2022/06/17 00:23:25;;;;;;;5.95;4.22;;;18.00;63.50;;;;;;5083589;28;20224;-89
2022/06/17 00:25:52;;;;;;;5.65;4.40;;;18.00;60.70;;;;;;5092453;28;20536;-90
2022/06/17 00:28:21;;;;;;;5.03;4.28;;;17.90;61.50;;;;;;5080859;28;20193;-89
2022/06/17 00:30:49;;;;;;;6.95;4.75;;;17.70;61.50;;;;;;5083979;28;20193;-89
2022/06/17 00:33:17;;;;;;;5.15;4.63;;;17.60;62.60;;;;;;5090550;28;20193;-89
2022/06/17 00:35:58;;;;;;;6.65;4.57;;;17.60;64.80;;;;;;5082499;28;20691;-89
2022/06/17 00:38:27;;;;;;;7.72;4.32;;;17.70;64.40;;;;;;5086260;28;20228;-89
2022/06/17 00:40:55;;;;;;;6.35;4.57;;;17.80;66.50;;;;;;5090980;28;20226;-89
2022/06/17 00:43:27;;;;;;;8.15;3.97;;;17.80;65.60;;;;;;5082638;28;20205;-89
2022/06/17 00:46:06;;;;;;;5.78;4.10;;;17.80;65.10;;;;;;5079042;28;20201;-89
2022/06/17 00:48:42;;;;;;;5.43;4.57;;;17.70;65.20;;;;;;5087513;28;20196;-88
2022/06/17 00:51:16;;;;;;;7.10;4.30;;;17.70;67.00;;;;;;5085828;28;20284;-89
2022/06/17 00:53:49;;;;;;;4.78;4.28;;;17.60;66.70;;;;;;5091841;28;20193;-90
2022/06/17 00:56:19;;;;;;;4.88;4.25;;;17.50;64.70;;;;;;5084826;28;20196;-89
2022/06/17 00:59:02;;;;;;;6.22;4.30;;;17.40;68.70;;;;;;5097268;28;20227;-89
2022/06/17 01:01:34;;;;;;;7.38;4.55;;;17.30;64.30;;;;;;5086761;28;20211;-89
2022/06/17 01:04:16;;;;;;;5.65;4.53;;;17.30;66.40;;;;;;5090363;28;20193;-89
2022/06/17 01:06:55;;;;;;;4.72;4.20;;;17.30;67.70;;;;;;5087853;28;20193;-89
2022/06/17 01:12:18;;;;;;;5.57;4.50;;;17.40;70.90;;;;;;5082723;28;21040;-89
2022/06/17 01:14:45;;;;;;;6.88;4.30;;;17.40;68.90;;;;;;5085338;28;20200;-89
2022/06/17 01:17:18;;;;;;;4.65;4.22;;;17.30;68.90;;;;;;5089610;28;20276;-89
2022/06/17 01:19:46;;;;;;;7.28;4.22;;;17.30;69.20;;;;;;5079167;28;20576;-89
2022/06/17 01:22:23;;;;;;;5.53;4.80;;;17.40;72.00;;;;;;5086147;28;20209;-89
2022/06/17 01:24:53;;;;;;;5.95;3.95;;;17.40;70.60;;;;;;5090483;28;20198;-89
2022/06/17 01:27:25;;;;;;;6.28;4.60;;;17.30;71.00;;;;;;5085987;28;20189;-89
2022/06/17 01:29:56;;;;;;;5.43;4.30;;;17.20;70.30;;;;;;5089404;28;20291;-89
2022/06/17 01:32:44;;;;;;;7.45;4.63;;;17.10;71.90;;;;;;5093117;28;20585;-89
2022/06/17 01:35:12;;;;;;;8.57;4.97;;;17.00;71.60;;;;;;5078880;28;20201;-89
2022/06/17 01:37:39;;;;;;;6.22;4.30;;;16.90;71.00;;;;;;5085169;28;20224;-89
2022/06/17 01:40:09;;;;;;;6.63;4.60;;;16.90;73.60;;;;;;5081115;28;20656;-90
2022/06/17 01:42:38;;;;;;;10.88;4.90;;;17.00;75.90;;;;;;5081523;28;20225;-90
2022/06/17 01:45:06;;;;;;;5.88;4.60;;;17.10;73.70;;;;;;5077321;28;20287;-89
2022/06/17 01:47:45;;;;;;;8.23;4.40;;;17.10;70.90;;;;;;5081325;28;20201;-89
2022/06/17 01:50:26;;;;;;;7.57;4.53;;;17.00;70.40;;;;;;5090586;28;20209;-89
2022/06/17 01:52:57;;;;;;;6.47;4.55;;;17.00;71.20;;;;;;5082376;28;20228;-89
2022/06/17 01:55:29;;;;;;;6.20;4.72;;;17.10;74.60;;;;;;5080262;28;20653;-89
2022/06/17 01:58:13;;;;;;;5.35;4.43;;;17.10;74.30;;;;;;5082240;28;20232;-89
2022/06/17 02:00:42;;;;;;;5.18;4.32;;;17.10;73.30;;;;;;5080866;28;20570;-89
2022/06/17 02:03:14;;;;;;;6.70;4.13;;;17.20;74.00;;;;;;5089831;28;20216;-89
2022/06/17 02:05:45;;;;;;;7.25;4.40;;;17.10;71.00;;;;;;5090748;28;20535;-89
2022/06/17 02:08:13;;;;;;;4.63;4.20;;;17.10;70.10;;;;;;5089491;28;20189;-89
2022/06/17 02:10:44;;;;;;;4.75;4.28;;;17.00;71.10;;;;;;5084558;28;20193;-89
2022/06/17 02:13:14;;;;;;;4.72;4.20;;;16.90;72.90;;;;;;5098158;28;20199;-89
2022/06/17 02:15:42;;;;;;;4.72;4.25;;;16.80;72.00;;;;;;5105674;28;20248;-89
2022/06/17 02:18:14;;;;;;;6.20;4.00;;;16.80;71.30;;;;;;5116029;28;20224;-89
2022/06/17 02:20:42;;;;;;;4.90;4.40;;;16.70;70.50;;;;;;5101517;28;20236;-90
2022/06/17 02:23:09;;;;;;;7.28;4.70;;;16.70;71.30;;;;;;5089950;28;20674;-89
2022/06/17 02:25:50;;;;;;;9.18;4.57;;;16.60;73.20;;;;;;5075913;28;20295;-89
2022/06/17 02:28:17;;;;;;;5.43;3.88;;;16.50;72.40;;;;;;5082507;28;20219;-89
2022/06/17 02:30:50;;;;;;;7.32;4.38;;;16.50;72.70;;;;;;5086709;28;20204;-89
2022/06/17 02:33:19;;;;;;;4.82;4.35;;;16.50;72.10;;;;;;5089129;28;20192;-89
2022/06/17 02:35:50;;;;;;;5.53;4.60;;;16.60;74.50;;;;;;5088373;28;20222;-90
2022/06/17 02:38:20;;;;;;;5.68;4.68;;;16.50;75.00;;;;;;5079515;28;20217;-89
2022/06/17 02:40:54;;;;;;;5.80;4.57;;;16.40;74.80;;;;;;5081963;28;20221;-89
2022/06/17 02:43:26;;;;;;;6.03;4.50;;;16.30;75.50;;;;;;5086180;28;20196;-90
2022/06/17 02:45:58;;;;;;;6.25;4.35;;;16.40;77.30;;;;;;5083851;28;20201;-89
2022/06/17 02:48:28;;;;;;;10.35;5.20;;;16.30;76.90;;;;;;5079701;28;20200;-89
2022/06/17 02:50:58;;;;;;;6.30;4.90;;;16.40;77.40;;;;;;5077983;28;20193;-89
2022/06/17 02:53:29;;;;;;;5.30;4.80;;;16.50;78.30;;;;;;5072658;28;20201;-90
2022/06/17 02:55:58;;;;;;;5.43;4.75;;;16.40;78.20;;;;;;5076720;28;20215;-89
2022/06/17 02:58:37;;;;;;;6.60;4.85;;;16.30;78.20;;;;;;5079551;28;20220;-90
2022/06/17 03:01:16;;;;;;;4.90;4.40;;;16.20;78.20;;;;;;5076412;28;20219;-89
2022/06/17 03:03:45;;;;;;;5.88;5.25;;;16.00;78.00;;;;;;5085279;28;20197;-89
2022/06/17 03:06:18;;;;;;;9.52;5.55;;;15.80;77.90;;;;;;5083158;28;20241;-90
2022/06/17 03:08:48;;;;;;;6.70;4.78;;;15.80;81.80;;;;;;5093119;28;20629;-89
2022/06/17 03:11:22;;;;;;;7.80;5.40;;;16.00;82.10;;;;;;5078612;28;20575;-90
2022/06/17 03:13:52;;;;;;;7.85;5.03;;;16.00;80.00;;;;;;5085427;28;20202;-89
2022/06/17 03:16:21;;;;;;;8.85;5.03;;;15.90;78.60;;;;;;5093339;28;20198;-89
2022/06/17 03:18:50;;;;;;;5.35;4.85;;;15.70;80.20;;;;;;5091468;28;20212;-89
2022/06/17 03:21:22;;;;;;;6.05;4.65;;;15.60;80.60;;;;;;5090458;28;20204;-89
2022/06/17 03:23:58;;;;;;;5.95;4.57;;;15.60;81.10;;;;;;5076937;28;20209;-89
2022/06/17 03:26:31;;;;;;;4.80;4.30;;;15.60;80.20;;;;;;5077848;28;20208;-89
2022/06/17 03:28:59;;;;;;;5.45;4.50;;;15.80;80.30;;;;;;5081076;28;20239;-89
2022/06/17 03:31:34;;;;;;;7.15;4.70;;;15.70;78.50;;;;;;5083965;28;20227;-90
2022/06/17 03:34:06;;;;;;;5.88;4.80;;;15.70;79.60;;;;;;5083616;28;20562;-90
2022/06/17 03:36:35;;;;;;;6.30;4.65;;;15.50;80.60;;;;;;5083215;28;20193;-90
2022/06/17 03:39:05;;;;;;;5.13;4.68;;;15.60;81.10;;;;;;5085036;28;20224;-89
2022/06/17 03:41:51;;;;;;;5.80;4.75;;;15.70;80.80;;;;;;5084923;28;20232;-89
2022/06/17 03:44:21;;;;;;;6.15;4.55;;;15.80;81.40;;;;;;5073426;28;20223;-90
2022/06/17 03:46:52;;;;;;;4.85;4.35;;;15.80;77.90;;;;;;5085654;28;20204;-89
2022/06/17 03:49:24;;;;;;;6.53;5.10;;;15.80;80.30;;;;;;5083798;28;20667;-89
2022/06/17 03:51:58;;;;;;;6.47;4.78;;;15.80;78.20;;;;;;5077070;28;20239;-90
2022/06/17 03:54:25;;;;;;;5.07;4.57;;;15.70;80.30;;;;;;5076442;28;20211;-89
2022/06/17 03:56:54;;;;;;;5.10;4.60;;;15.80;80.80;;;;;;5076903;28;20197;-89
2022/06/17 03:59:30;;;;;;;6.07;5.32;;;15.80;81.00;;;;;;5076796;28;20217;-89
2022/06/17 04:02:00;;;;;;;5.15;4.65;;;15.90;81.70;;;;;;5077563;28;20201;-89
2022/06/17 04:04:30;;;;;;;6.35;5.00;;;15.90;81.90;;;;;;5086399;28;20592;-89
2022/06/17 04:06:58;;;;;;;7.75;5.60;;;16.00;81.70;;;;;;5083587;28;20201;-90
2022/06/17 04:09:28;;;;;;;9.43;5.78;;;16.00;81.20;;;;;;5086647;28;20198;-89
2022/06/17 04:12:00;;;;;;;6.60;5.35;;;16.10;81.20;;;;;;5079611;28;20208;-89
2022/06/17 04:14:31;;;;;;;9.45;5.15;;;16.20;80.40;;;;;;5077549;28;20205;-89
2022/06/17 04:17:17;;;;;;;14.25;5.65;;;16.20;78.20;;;;;;5092144;28;20651;-89
2022/06/17 04:20:03;;;;;;;10.15;5.97;;;16.30;78.20;;;;;;5092385;28;20236;-89
2022/06/17 04:22:35;;;;;;;5.63;4.43;;;16.30;78.20;;;;;;5087646;28;20204;-89
2022/06/17 04:25:14;;;;;;;5.60;4.90;;;16.30;78.20;;;;;;5081780;28;20197;-89
2022/06/17 04:27:58;;;;;;;8.30;5.47;;;16.30;78.20;;;;;;5080025;28;20210;-89
2022/06/17 04:30:28;;;;;;;5.90;4.60;;;16.40;78.30;;;;;;5079254;28;20669;-89
2022/06/17 04:33:15;;;;;;;6.68;4.90;;;16.40;78.30;;;;;;5086908;28;20641;-88
2022/06/17 04:35:53;;;;;;;5.75;4.63;;;16.50;76.30;;;;;;5084179;28;20555;-89
2022/06/17 04:38:27;;;;;;;8.27;4.72;;;16.60;73.20;;;;;;5082288;28;20189;-89
2022/06/17 04:40:59;;;;;;;5.80;4.80;;;16.50;71.30;;;;;;5085504;28;20218;-89
2022/06/17 04:43:37;;;;;;;7.18;4.80;;;16.60;74.00;;;;;;5083097;28;20201;-89
2022/06/17 04:46:14;;;;;;;5.50;3.95;;;16.70;68.40;;;;;;5082236;28;20192;-89
2022/06/17 04:48:44;;;;;;;6.38;4.07;;;16.70;66.40;;;;;;5082337;28;20941;-88
2022/06/17 04:51:20;;;;;;;8.77;4.10;;;16.70;64.90;;;;;;5082078;28;20210;-88
2022/06/17 04:53:48;;;;;;;4.57;4.00;;;16.80;64.30;;;;;;5077777;28;20197;-90
2022/06/17 04:56:34;;;;;;;8.55;3.90;;;16.80;63.70;;;;;;5086021;28;20209;-89
2022/06/17 04:59:34;;;;;;;7.13;4.18;;;16.90;61.80;;;;;;5079267;28;20232;-89
2022/06/17 05:02:26;;;;;;;5.75;4.28;;;17.20;60.10;;;;;;5020307;28;20215;-89
2022/06/17 05:04:57;;;;;;;4.65;4.13;;;17.60;56.10;;;;;;5022852;28;20194;-89
2022/06/17 05:07:25;;;;;;;4.57;4.10;;;17.60;53.70;;;;;;5025262;28;20198;-90
2022/06/17 05:10:13;;;;;;;6.30;3.80;;;17.70;53.80;;;;;;5024791;28;20199;-90
2022/06/17 05:13:00;;;;;;;6.53;4.00;;;17.80;53.70;;;;;;5020188;28;20206;-89
2022/06/17 05:15:33;;;;;;;6.45;4.40;;;17.90;54.00;;;;;;5015802;28;20208;-89
2022/06/17 05:18:02;;;;;;;7.68;4.30;;;17.90;54.00;;;;;;5021412;28;20199;-88
2022/06/17 05:20:29;;;;;;;9.10;4.18;;;17.90;53.90;;;;;;5027809;28;20257;-90
2022/06/17 05:23:05;;;;;;;5.35;4.18;;;17.90;54.00;;;;;;5013900;28;20651;-89
2022/06/17 05:25:40;;;;;;;6.00;4.10;;;17.90;54.00;;;;;;5028991;28;20195;-89
2022/06/17 05:28:21;;;;;;;6.65;3.90;;;18.00;50.30;;;;;;5029558;28;20225;-89
2022/06/17 05:30:57;;;;;;;5.47;3.65;;;18.30;46.00;;;;;;5018753;28;20209;-89
2022/06/17 05:33:50;;;;;;;11.00;4.32;;;18.50;41.80;;;;;;5021166;28;20195;-89
2022/06/17 05:36:26;;;;;;;6.00;3.90;;;18.70;40.60;;;;;;5019034;28;20195;-89
2022/06/17 05:39:02;;;;;;;8.20;3.60;;;18.70;38.80;;;;;;5049700;28;20223;-87
2022/06/17 05:41:44;;;;;;;6.03;3.78;;;19.10;37.30;;;;;;5090939;28;20219;-86
2022/06/17 05:44:26;;;;;;;5.80;3.42;;;19.80;35.60;;;;;;5095773;28;20570;-87
2022/06/17 05:47:21;;;;;;;4.18;3.30;;;20.20;32.20;;;;;;5091008;28;20192;-86
2022/06/17 05:50:02;;;;;;;7.05;3.50;;;20.70;32.60;;;;;;5090178;28;20249;-87
2022/06/17 05:52:32;;;;;;;5.90;3.65;;;20.80;32.30;;;;;;5085004;28;20201;-87
2022/06/17 05:55:02;;;;;;;11.15;4.13;;;21.00;32.30;;;;;;5084237;28;20552;-87
2022/06/17 05:57:49;;;;;;;6.10;3.70;;;21.00;30.50;;;;;;5077402;28;20201;-87
2022/06/17 06:00:37;;;;;;;6.85;3.53;;;20.80;31.00;;;;;;5082158;28;20209;-87
2022/06/17 06:03:16;;;;;;;5.43;3.50;;;20.70;32.60;;;;;;5091769;28;20192;-87
2022/06/17 06:05:44;;;;;;;5.07;3.60;;;20.60;32.60;;;;;;5081651;28;20211;-87
2022/06/17 06:08:14;;;;;;;6.38;3.53;;;20.60;32.20;;;;;;5085367;28;20205;-87
2022/06/17 06:10:43;;;;;;;5.97;3.50;;;20.20;31.30;;;;;;5085940;28;20199;-87
2022/06/17 06:13:16;;;;;;;7.35;3.55;;;20.40;32.40;;;;;;5096387;28;20197;-87
2022/06/17 06:15:56;;;;;;;5.88;3.85;;;20.30;32.20;;;;;;5087618;28;20222;-86
2022/06/17 06:21:47;;;;;;;6.32;3.25;;;20.50;31.50;;;;;;5076381;28;20272;-88
2022/06/17 06:24:49;;;;;;;7.18;3.40;;;20.80;30.80;;;;;;5082881;28;20189;-85
2022/06/17 06:27:20;;;;;;;5.50;3.78;;;20.80;30.50;;;;;;5084067;28;20188;-85
2022/06/17 06:29:50;;;;;;;6.00;3.75;;;20.80;30.50;;;;;;5084374;28;20582;-84
2022/06/17 06:32:20;;;;;;;5.45;3.42;;;20.80;29.60;;;;;;5080504;28;20203;-86
2022/06/17 06:34:47;;;;;;;8.95;3.65;;;20.70;31.00;;;;;;5078688;28;20236;-86
2022/06/17 06:37:15;;;;;;;6.03;3.80;;;20.70;30.80;;;;;;5075032;28;20204;-92
2022/06/17 06:39:50;;;;;;;6.22;3.60;;;20.60;32.50;;;;;;5081005;28;20221;-87
2022/06/17 06:42:20;;;;;;;6.80;3.53;;;20.50;32.50;;;;;;5083816;28;20217;-87
2022/06/17 06:45:37;;;;;;;6.43;3.70;;;20.60;31.00;;;;;;5079740;28;20193;-86
2022/06/17 06:48:10;;;;;;;7.60;3.90;;;20.90;31.00;;;;;;5083882;28;20199;-85
2022/06/17 06:50:38;;;;;;;5.70;3.97;;;21.00;30.30;;;;;;5085202;28;20275;-87
2022/06/17 06:53:16;;;;;;;5.60;3.78;;;21.00;30.10;;;;;;5079073;28;20204;-89
2022/06/17 06:55:56;;;;;;;6.45;3.60;;;21.00;31.10;;;;;;5086885;28;20578;-86
2022/06/17 06:58:26;;;;;;;7.90;3.90;;;20.90;31.80;;;;;;5081235;28;20223;-86
2022/06/17 07:00:57;;;;;;;6.35;4.20;;;20.80;31.00;;;;;;5080551;28;20701;-85
2022/06/17 07:03:26;;;;;;;5.20;4.25;;;20.90;31.20;;;;;;5083166;28;20220;-85
2022/06/17 07:06:25;;;;;;;8.00;4.28;;;20.80;30.40;;;;;;5091020;28;20298;-86
2022/06/17 07:08:57;;;;;;;4.35;3.53;;;20.80;30.60;;;;;;5079295;28;20197;-87
2022/06/17 07:11:32;;;;;;;5.15;3.22;;;21.10;30.50;;;;;;5090248;28;20192;-86
2022/06/17 07:14:14;;;;;;;9.02;3.90;;;21.50;29.50;;;;;;5081514;28;20536;-88
2022/06/17 07:17:08;;;;;;;9.40;4.00;;;21.70;26.70;;;;;;5079573;28;20192;-87
2022/06/17 07:23:49;;;;;;;5.93;3.78;;;21.90;27.90;;;;;;5083801;28;20224;-87
2022/06/17 07:26:33;;;;;;;5.68;4.00;;;22.20;28.70;;;;;;5086320;28;20223;-88
2022/06/17 07:29:02;;;;;;;7.63;3.92;;;22.80;25.70;;;;;;5076941;28;20189;-86
2022/06/17 07:31:32;;;;;;;9.68;3.55;;;23.20;25.40;;;;;;5079767;28;20577;-83
2022/06/17 07:34:14;;;;;;;5.88;4.13;;;23.40;24.00;;;;;;5074924;28;20270;-83
2022/06/17 07:40:27;;;;;;;6.80;4.05;;;22.60;24.70;;;;;;5078559;28;20212;-86
2022/06/17 07:42:57;;;;;;;5.72;3.28;;;22.50;24.90;;;;;;5085788;28;20202;-89
2022/06/17 07:45:44;;;;;;;5.78;3.72;;;22.70;25.60;;;;;;5084147;28;20204;-86
2022/06/17 07:48:27;;;;;;;9.57;3.88;;;22.90;25.40;;;;;;5080149;28;20189;-84
2022/06/17 07:51:13;;;;;;;8.00;3.60;;;22.80;25.80;;;;;;5079419;28;20201;-86
2022/06/17 07:53:50;;;;;;;7.40;4.40;;;22.70;25.00;;;;;;5082575;28;20275;-86
2022/06/17 07:56:17;;;;;;;6.05;3.80;;;22.80;25.00;;;;;;5085450;28;20220;-88
2022/06/17 07:58:45;;;;;;;6.20;3.83;;;23.10;25.40;;;;;;5089684;28;20237;-86
2022/06/17 08:01:26;;;;;;;6.05;3.72;;;23.40;25.10;;;;;;5086048;28;20216;-85
2022/06/17 08:04:08;;;;;;;5.75;3.40;;;23.60;24.50;;;;;;5081040;28;20553;-84
2022/06/17 08:06:38;;;;;;;6.72;3.80;;;23.80;25.10;;;;;;5085481;28;20201;-83
2022/06/17 08:09:08;;;;;;;5.10;3.50;;;24.10;23.70;;;;;;5082085;28;20220;-83
2022/06/17 08:12:25;;;;;;;5.32;3.65;;;24.30;22.50;;;;;;5079684;28;20197;-81
2022/06/17 08:15:12;;;;;;;4.25;3.60;;;24.20;20.70;;;;;;5082080;28;20189;-83
2022/06/17 08:18:07;;;;;;;4.78;3.25;;;24.70;22.40;;;;;;5084801;28;20196;-82
2022/06/17 08:20:38;;;;;;;4.43;3.38;;;26.30;18.00;;;;;;5078204;28;20213;-84
2022/06/17 08:23:06;;;;;;;4.75;3.40;;;28.30;15.80;;;;;;5078176;28;20203;-84
2022/06/17 08:25:57;;;;;;;4.28;3.40;;;29.80;12.90;;;;;;5083118;28;20196;-84
2022/06/17 08:28:32;;;;;;;4.93;3.42;;;31.60;10.40;;;;;;5084574;28;20246;-85
2022/06/17 08:34:39;;;;;;;4.05;3.35;;;33.40;6.40;;;;;;5084682;28;20191;-85
2022/06/17 08:37:08;;;;;;;6.00;3.78;;;33.80;6.10;;;;;;5080621;28;20220;-84
2022/06/17 08:39:35;;;;;;;3.70;3.40;;;33.40;5.80;;;;;;5084234;28;20208;-85
2022/06/17 08:42:16;;;;;;;5.32;3.45;;;33.90;6.00;;;;;;5089941;28;20261;-85
2022/06/17 08:45:07;;;;;;;5.65;3.60;;;34.00;5.80;;;;;;5094925;28;20655;-87
2022/06/17 08:47:53;;;;;;;4.43;3.47;;;33.60;5.30;;;;;;5084886;28;20196;-87
2022/06/17 08:50:38;;;;;;;4.20;3.40;;;34.10;6.20;;;;;;5090160;28;20203;-88
2022/06/17 08:53:38;;;;;;;3.53;3.22;;;34.50;2.90;;;;;;5084286;28;20203;-86
2022/06/17 08:56:16;;;;;;;4.93;3.55;;;34.80;3.70;;;;;;5084811;28;20660;-84
2022/06/17 08:58:53;;;;;;;5.40;3.33;;;35.10;2.70;;;;;;5079690;28;20223;-84
2022/06/17 09:01:29;;;;;;;3.70;3.40;;;35.00;1.10;;;;;;5084197;28;20223;-81
2022/06/17 09:04:20;;;;;;;6.40;4.00;;;35.50;2.60;;;;;;5085879;28;20202;-82
2022/06/17 09:07:00;;;;;;;4.07;3.65;;;34.70;2.90;;;;;;5083084;28;20687;-83
2022/06/17 09:09:57;;;;;;;5.05;4.30;;;34.20;3.60;;;;;;5085058;28;20222;-83
2022/06/17 09:12:41;;;;;;;5.43;4.18;;;35.10;3.80;;;;;;5084939;28;20646;-83
2022/06/17 09:15:17;;;;;;;5.20;3.88;;;35.90;3.90;;;;;;5093692;28;20192;-85
2022/06/17 09:17:53;;;;;;;4.75;4.10;;;36.00;1.00;;;;;;5097124;28;20211;-83
2022/06/17 09:20:30;;;;;;;4.22;3.80;;;35.90;1.50;;;;;;5079212;28;20201;-84
2022/06/17 09:23:02;;;;;;;6.40;3.60;;;36.20;1.40;;;;;;5076769;28;20197;-83
2022/06/17 09:25:46;;;;;;;4.82;4.03;;;36.70;1.00;;;;;;5083246;28;20676;-83
2022/06/17 09:28:20;;;;;;;4.10;3.80;;;37.00;1.00;;;;;;5089930;28;20218;-83
2022/06/17 09:31:04;;;;;;;4.03;3.72;;;36.50;1.00;;;;;;5089304;28;20203;-84
2022/06/17 09:34:05;;;;;;;5.28;4.40;;;36.00;1.00;;;;;;5082645;28;20202;-85
2022/06/17 09:36:49;;;;;;;5.93;4.28;;;36.20;1.00;;;;;;5087235;28;20207;-84
2022/06/17 09:39:41;;;;;;;4.53;4.10;;;36.30;1.00;;;;;;5087457;28;20203;-85
2022/06/17 09:42:25;;;;;;;4.43;4.03;;;35.20;1.00;;;;;;5091074;28;20228;-84
2022/06/17 09:45:13;;;;;;;7.60;3.95;;;36.30;1.00;;;;;;5092240;28;20652;-86
2022/06/17 09:47:44;;;;;;;5.03;4.13;;;36.70;1.00;;;;;;5089294;28;20204;-84
2022/06/17 09:50:18;;;;;;;6.53;4.72;;;37.60;1.00;;;;;;5083752;28;20196;-83
2022/06/17 09:52:52;;;;;;;5.10;4.75;;;37.50;1.00;;;;;;5086053;28;20193;-83
2022/06/17 09:55:24;;;;;;;6.57;4.80;;;36.90;1.00;;;;;;5089182;28;20275;-83
2022/06/17 09:57:56;;;;;;;5.50;4.40;;;37.80;1.00;;;;;;5083594;28;20193;-85
2022/06/17 10:00:46;;;;;;;10.07;5.00;;;37.60;1.00;;;;;;5084675;28;20211;-84
2022/06/17 10:03:22;;;;;;;5.20;4.70;;;37.70;1.00;;;;;;5079811;28;20200;-83
2022/06/17 10:06:03;;;;;;;5.35;4.80;;;38.00;1.10;;;;;;5086967;28;20200;-84
2022/06/17 10:08:44;;;;;;;5.32;4.78;;;37.70;1.00;;;;;;5092211;28;20530;-84
2022/06/17 10:11:22;;;;;;;6.55;4.80;;;36.40;1.00;;;;;;5083402;28;20201;-85
2022/06/17 10:14:19;;;;;;;6.32;4.68;;;37.10;1.00;;;;;;5077306;28;20196;-85
2022/06/17 10:19:56;;;;;;;5.03;4.45;;;37.50;1.00;;;;;;5080652;28;20678;-85
2022/06/17 10:23:13;;;;;;;5.68;4.40;;;36.20;1.00;;;;;;5084678;28;20200;-85
2022/06/17 10:26:31;;;;;;;4.65;4.22;;;35.40;2.10;;;;;;5090135;28;20550;-85
2022/06/17 10:29:49;;;;;;;4.57;4.10;;;35.50;3.50;;;;;;5084646;28;20192;-86
2022/06/17 10:32:37;;;;;;;4.45;4.10;;;36.00;2.20;;;;;;5081300;28;20693;-85
2022/06/17 10:35:39;;;;;;;4.20;3.80;;;36.10;1.70;;;;;;5081485;28;20197;-87
2022/06/17 10:38:12;;;;;;;7.25;3.85;;;36.90;2.60;;;;;;5076704;28;20219;-88
2022/06/17 10:41:02;;;;;;;4.63;3.72;;;36.20;1.00;;;;;;5081874;28;20224;-86
2022/06/17 10:43:51;;;;;;;4.90;3.72;;;35.40;1.70;;;;;;5082571;28;20560;-87
2022/06/17 10:46:22;;;;;;;4.30;3.97;;;35.10;2.70;;;;;;5081338;28;20196;-86
2022/06/17 10:49:03;;;;;;;5.00;3.83;;;34.70;3.70;;;;;;5085477;28;20201;-86
2022/06/17 10:51:30;;;;;;;3.80;3.50;;;34.90;3.40;;;;;;5085392;28;20204;-86
2022/06/17 10:54:21;;;;;;;4.60;3.50;;;35.00;3.50;;;;;;5086601;28;20678;-87
2022/06/17 10:56:58;;;;;;;5.07;3.60;;;34.90;4.70;;;;;;5080200;28;20223;-90
2022/06/17 10:59:45;;;;;;;3.47;3.13;;;34.60;5.20;;;;;;5085636;28;20184;-86
2022/06/17 11:03:07;;;;;;;3.83;3.53;;;34.30;3.80;;;;;;5090989;28;20214;-87
2022/06/17 11:05:36;;;;;;;3.47;2.80;;;33.90;4.20;;;;;;5091672;28;20196;-86
2022/06/17 11:08:03;;;;;;;2.80;2.60;;;33.00;6.10;;;;;;5091785;28;20259;-86
2022/06/17 11:10:53;;;;;;;3.00;2.58;;;32.60;6.20;;;;;;5088208;28;20195;-86
2022/06/17 11:13:21;;;;;;;3.20;2.53;;;31.70;6.30;;;;;;5086969;28;20193;-87
2022/06/17 11:15:53;;;;;;;3.70;2.55;;;30.70;7.40;;;;;;5090857;28;20196;-86
2022/06/17 11:18:30;;;;;;;2.50;2.30;;;30.20;8.30;;;;;;5091081;28;20203;-84
2022/06/17 11:21:21;;;;;;;3.88;2.30;;;29.80;8.10;;;;;;5094188;28;20224;-87
2022/06/17 11:24:05;;;;;;;2.92;2.22;;;29.40;8.90;;;;;;5088001;28;20635;-86
2022/06/17 11:27:04;;;;;;;5.22;2.38;;;29.10;6.60;;;;;;5090929;28;20204;-86
2022/06/17 11:29:39;;;;;;;2.92;2.55;;;29.00;8.90;;;;;;5091639;28;20575;-84
2022/06/17 11:32:29;;;;;;;3.83;2.35;;;29.10;12.10;;;;;;5090044;28;20195;-85
2022/06/17 11:34:58;;;;;;;5.47;2.90;;;28.90;12.50;;;;;;5089305;28;20201;-85
2022/06/17 11:37:48;;;;;;;2.47;2.25;;;28.90;12.00;;;;;;5092835;28;20215;-86
2022/06/17 11:40:18;;;;;;;2.47;2.28;;;28.60;9.40;;;;;;5084536;28;20196;-86
2022/06/17 11:42:49;;;;;;;5.03;2.60;;;28.50;9.70;;;;;;5086865;28;20228;-85
2022/06/17 11:45:24;;;;;;;3.50;2.53;;;28.30;10.30;;;;;;5092180;28;20193;-86
2022/06/17 11:47:57;;;;;;;2.92;2.10;;;28.50;13.00;;;;;;5089076;28;20399;-87
2022/06/17 11:53:55;;;;;;;3.50;2.70;;;28.30;11.40;;;;;;5085138;28;20593;-83
2022/06/17 11:56:35;;;;;;;3.72;2.38;;;27.90;13.30;;;;;;5088307;28;20208;-86
2022/06/17 11:59:22;;;;;;;4.10;2.28;;;27.80;13.00;;;;;;5087654;28;20200;-85
2022/06/17 12:02:14;;;;;;;3.97;2.97;;;27.90;13.20;;;;;;5083002;28;20216;-87
2022/06/17 12:04:47;;;;;;;3.22;2.50;;;27.90;13.70;;;;;;5090626;28;20562;-86
2022/06/17 12:07:34;;;;;;;3.30;2.40;;;27.90;11.30;;;;;;5089939;28;20200;-86
2022/06/17 12:10:57;;;;;;;5.15;2.45;;;27.70;10.50;;;;;;5083834;28;20207;-87
2022/06/17 12:13:29;;;;;;;3.70;2.40;;;27.70;12.60;;;;;;5061439;28;20204;-84
2022/06/17 12:16:02;;;;;;;3.83;2.45;;;27.70;12.30;;;;;;5102425;28;20204;-85
2022/06/17 12:18:46;;;;;;;3.05;2.28;;;27.70;11.30;;;;;;5087379;28;20189;-83
2022/06/17 12:21:31;;;;;;;3.05;2.50;;;27.90;10.90;;;;;;5085850;28;20208;-86
2022/06/17 12:24:04;;;;;;;4.80;2.67;;;28.10;10.80;;;;;;5081629;28;20283;-86
2022/06/17 12:26:51;;;;;;;2.92;2.50;;;28.20;12.90;;;;;;5086198;28;20211;-86
2022/06/17 12:29:40;;;;;;;3.28;2.22;;;27.90;12.30;;;;;;5083813;28;20212;-86
2022/06/17 12:32:14;;;;;;;3.55;2.53;;;27.40;13.70;;;;;;5078748;28;20642;-85
2022/06/17 12:34:55;;;;;;;4.15;2.50;;;27.30;15.30;;;;;;5089639;28;20207;-83
2022/06/17 12:37:32;;;;;;;3.90;2.92;;;27.20;14.30;;;;;;5090185;28;20200;-89
2022/06/17 12:40:13;;;;;;;2.40;2.20;;;27.50;13.60;;;;;;5091102;28;20201;-85
2022/06/17 12:42:59;;;;;;;6.43;2.63;;;27.60;13.60;;;;;;5096081;28;20299;-84
2022/06/17 12:45:33;;;;;;;2.92;2.30;;;27.60;12.60;;;;;;5084051;28;20233;-86
2022/06/17 12:48:37;;;;;;;3.38;2.25;;;27.60;11.30;;;;;;5084400;28;20226;-87
2022/06/17 12:54:35;;;;;;;4.35;2.17;;;27.70;12.60;;;;;;5076859;28;20735;-87
2022/06/17 12:57:29;;;;;;;2.53;2.00;;;27.10;10.20;;;;;;5095296;28;20266;-86
2022/06/17 13:00:06;;;;;;;2.20;2.00;;;27.20;13.30;;;;;;5083237;28;20204;-87
2022/06/17 13:03:07;;;;;;;5.55;2.83;;;27.10;11.90;;;;;;5082363;28;20220;-86
2022/06/17 13:05:45;;;;;;;3.38;2.63;;;27.00;11.20;;;;;;5084582;28;20316;-86
2022/06/17 13:08:29;;;;;;;4.18;2.10;;;27.00;11.90;;;;;;5080202;28;20204;-87
2022/06/17 13:14:37;;;;;;;2.40;1.83;;;26.90;11.10;;;;;;5088975;28;20265;-86
2022/06/17 13:17:26;;;;;;;4.63;2.15;;;27.00;11.80;;;;;;5080664;28;20196;-87
2022/06/17 13:20:25;;;;;;;3.05;2.03;;;27.00;11.10;;;;;;5087319;28;20193;-87
2022/06/17 13:23:17;;;;;;;2.60;2.15;;;27.10;11.20;;;;;;5087049;28;20220;-86
2022/06/17 13:26:03;;;;;;;2.72;2.10;;;27.10;11.80;;;;;;5082394;28;20197;-88
2022/06/17 13:28:41;;;;;;;4.05;2.17;;;27.20;10.50;;;;;;5090192;28;20199;-88
2022/06/17 13:31:18;;;;;;;4.18;1.88;;;27.10;12.00;;;;;;5088230;28;20583;-88
2022/06/17 13:33:51;;;;;;;3.05;2.03;;;27.20;12.40;;;;;;5092696;28;20200;-87
2022/06/17 13:36:42;;;;;;;3.10;2.60;;;27.20;12.10;;;;;;5084635;28;20599;-87
2022/06/17 13:39:24;;;;;;;5.68;2.53;;;27.20;13.50;;;;;;5090350;28;20207;-87
2022/06/17 13:42:43;;;;;;;4.63;2.85;;;27.20;12.60;;;;;;5090981;28;20307;-87
2022/06/17 13:45:22;;;;;;;2.25;2.05;;;27.00;12.60;;;;;;5082967;28;20200;-85
2022/06/17 13:48:13;;;;;;;4.85;2.40;;;27.00;10.50;;;;;;5085058;28;20667;-87
2022/06/17 13:51:15;;;;;;;3.92;2.00;;;26.90;11.30;;;;;;5084420;28;20595;-84
2022/06/17 13:54:00;;;;;;;4.10;1.90;;;26.70;11.70;;;;;;5078797;28;20688;-85
2022/06/17 13:56:57;;;;;;;4.80;1.90;;;26.50;13.40;;;;;;5084078;28;20583;-85
2022/06/17 13:59:32;;;;;;;8.48;2.72;;;26.60;13.00;;;;;;5084603;28;20228;-86
2022/06/17 14:02:26;;;;;;;3.50;2.33;;;26.60;13.50;;;;;;5081541;28;20691;-83
2022/06/17 14:08:18;;;;;;;4.97;2.53;;;26.50;12.50;;;;;;5090462;28;20240;-85
2022/06/17 14:14:31;;;;;;;3.28;2.40;;;26.80;13.30;;;;;;5079138;28;20203;-85
2022/06/17 14:17:02;;;;;;;2.30;2.10;;;26.90;15.10;;;;;;5089727;28;20219;-84
2022/06/17 14:19:50;;;;;;;3.90;2.17;;;26.90;13.00;;;;;;5094374;28;20197;-86
2022/06/17 14:22:27;;;;;;;4.25;2.47;;;27.00;12.10;;;;;;5089884;28;20598;-84